Impacts METAR Board
IDs:

KGRK - Killeen-Ft Hood Rgnl, TX, US

Updated at: 1800 UTC 16 Oct 2021
Potential Impact None Slight Moderate High
Time 16/06Z 16/07Z 16/08Z 16/09Z 16/10Z 16/11Z 16/12Z 16/13Z 16/14Z 16/15Z 16/16Z 16/17Z 16/18Z
Temp54 52 51 50 50 49 49 48 54 60 64 67 69
Dewpt47 46 45 44 43 42 42 42 44 42 39 35 33
Altim30.25 30.26 30.27 30.27 30.28 30.29 30.31 30.33 30.35 30.37 30.38 30.38 30.36
VIS10 10 10 10 10 10 10 10 10 10 10 9 10
CIG-- -- -- -- -- -- -- -- -- -- -- -- --
CoverCLRCLRCLRCLRCLRCLRCLRCLRCLRCLRCLRCLRCLR
FltCatVFRVFRVFRVFRVFRVFRVFRVFRVFRVFRVFRVFRVFR
WX--------------------------
WDir35036035035035035035035035010504050
WSpd8 9 8 8 8 8 9 8 9 7 12 11 10
WGst-- -- -- -- -- -- -- -- -- -- 16 -- 16
Raw hourly METARs
KGRK 160556Z AUTO 35008KT 10SM CLR 12/08 A3025 RMK AO2 LTG DSNT S SLP238 T01240081 10209 20124 402780124 50021
KGRK 160656Z AUTO 36009KT 10SM CLR 11/08 A3026 RMK AO2 SLP243 T01130078
KGRK 160756Z AUTO 35008KT 10SM CLR 11/07 A3027 RMK AO2 SLP246 T01060071
KGRK 160856Z AUTO 35008KT 10SM CLR 10/07 A3027 RMK AO2 SLP247 T01010066 50005
KGRK 160956Z AUTO 35008KT 10SM CLR 10/06 A3028 RMK AO2 SLP250 T01010061
KGRK 161056Z AUTO 35008KT 10SM CLR 10/06 A3029 RMK AO2 SLP253 T00960058
KGRK 161156Z AUTO 35009KT 10SM CLR 10/06 A3031 RMK AO2 SLP261 T00950055 10125 20092 52015
KGRK 161256Z AUTO 35008KT 10SM CLR 09/06 A3033 RMK AO2 SLP269 T00900056
KGRK 161356Z AUTO 35009KT 10SM CLR 12/07 A3035 RMK AO2 SLP275 T01230066
KGRK 161456Z AUTO 01007KT 10SM CLR 16/06 A3037 RMK AO2 SLP281 T01550057 52020
KGRK 161556Z AUTO 05012G16KT 10SM CLR 18/04 A3038 RMK AO2 SLP284 T01800038
KGRK 161656Z AUTO 04011KT 9SM CLR 20/02 A3038 RMK AO2 SLP284 T01950015
KGRK 161756Z AUTO 05010G16KT 10SM CLR 20/01 A3036 RMK AO2 SLP278 T02030007 10204 20089 58006